Date,TemperatureHighF,TemperatureAvgF,TemperatureLowF,DewpointHighF,DewpointAvgF,DewpointLowF,HumidityHigh,HumidityAvg,HumidityLow,PressureMaxIn,PressureMinIn,WindSpeedMaxMPH,WindSpeedAvgMPH,GustSpeedMaxMPH,PrecipitationSumIn
2013-1-1,21,17,12,-100,-100,-100,0,0,100,0.00,40.00,0,-999,0,0.00
2013-1-2,28,17,5,-100,-100,-100,0,0,100,0.00,40.00,0,-999,0,0.00
2013-1-3,35,26,14,-100,-100,-100,0,0,100,0.00,40.00,0,-999,0,0.00
2013-1-4,42,27,11,-100,-100,-100,0,0,100,0.00,40.00,0,-999,0,0.00
2013-1-5,45,36,27,-100,-100,-100,0,0,100,0.00,40.00,0,-999,0,0.00
2013-1-6,47,30,21,-100,-100,-100,0,0,100,0.00,40.00,0,-999,0,0.00
2013-1-7,51,38,30,-100,-100,-100,0,0,100,0.00,40.00,0,-999,0,0.00
2013-1-8,57,43,35,-100,-100,-100,0,0,100,0.00,40.00,0,-999,0,0.00
2013-1-9,53,36,24,-100,-100,-100,0,0,100,0.00,40.00,0,-999,0,0.00
2013-1-10,44,41,33,-100,-100,-100,0,0,100,0.00,40.00,0,-999,0,0.00
2013-1-11,58,50,42,-100,-100,-100,0,0,100,0.00,40.00,0,-999,0,0.00
2013-1-12,54,28,20,-100,-100,-100,0,0,100,0.00,40.00,0,-999,0,0.00
2013-1-13,26,18,12,-100,-100,-100,0,0,100,0.00,40.00,0,-999,0,0.00
2013-1-14,27,19,10,-100,-100,-100,0,0,100,0.00,40.00,0,-999,0,0.00
2013-1-15,34,20,14,-100,-100,-100,0,0,100,0.00,40.00,0,-999,0,0.00
2013-1-16,49,31,19,-100,-100,-100,0,0,100,0.00,40.00,0,-999,0,0.00
2013-1-17,51,34,22,-100,-100,-100,0,0,100,0.00,40.00,0,-999,0,0.00
2013-1-18,59,44,29,-100,-100,-100,0,0,100,0.00,40.00,0,-999,0,0.00
2013-1-19,63,46,37,-100,-100,-100,0,0,100,0.00,40.00,0,-999,0,0.00
2013-1-20,40,28,20,-100,-100,-100,0,0,100,0.00,40.00,0,-999,0,0.00
2013-1-21,21,18,14,-100,-100,-100,0,0,100,0.00,40.00,0,-999,0,0.00
2013-1-22,32,21,14,-100,-100,-100,0,0,100,0.00,40.00,0,-999,0,0.00
2013-1-23,47,27,13,-100,-100,-100,0,0,100,0.00,40.00,0,-999,0,0.00
2013-1-24,26,20,10,-100,-100,-100,0,0,100,0.00,40.00,0,-999,0,0.00
2013-1-25,49,32,17,-100,-100,-100,0,0,100,0.00,40.00,0,-999,0,0.00
2013-1-26,58,40,25,-100,-100,-100,0,0,100,0.00,40.00,0,-999,0,0.00
2013-1-27,58,48,40,-100,-100,-100,0,0,100,0.00,40.00,0,-999,0,0.00
2013-1-28,73,59,47,-100,-100,-100,0,0,100,0.00,40.00,0,-999,0,0.00
2013-1-29,67,44,32,-100,-100,-100,0,0,100,0.00,40.00,0,-999,0,0.00
2013-1-30,33,26,21,-100,-100,-100,0,0,100,0.00,40.00,0,-999,0,0.00
2013-1-31,18,14,7,-100,-100,-100,0,0,100,0.00,40.00,0,-999,0,0.00